Poolville, TX (76487)

6:45 PM CDT on May 25, 2015 (GMT -0500)
CrazyAT Cattle Co | | Change Station
CLOSE
Current Station
Personal Weather Station
Location: Springtown, TX
Elevation: 942 ft
Nearby Weather Stations

Elev 942 ft 33.02 °N, 97.74 °W | Updated 3 minutes ago

Partly Cloudy
Partly Cloudy
62.1 °F
Feels Like 62.1 °F
N
1.7
Wind Variable Wind from ESE

Today
High -- | Low -- °F
--% Chance of Precip.
Yesterday
High -- | Low -- °F
Precip. -- in
6:26 AM 8:30 PM
First Quarter, 52% visible
Pressure 29.85 in
Visibility 10.0 miles
Clouds Overcast 900 ft
Dew Point 59 °F
Humidity 90%
Rainfall 0.07 in
Snow Depth Not available.
UV 1 out of 12
Pollen 4.70 out of 12
Air Quality Not available.
Flu Activity Sporadic
METAR KXBP 252335Z AUTO 00000KT 10SM OVC009 17/17 A2985 RMK AO2 LTG DSNT NE T01720172

More Conditions Fewer Conditions

Pressure 29.85 in
Visibility 10.0 miles
Clouds Overcast 900 ft
Dew Point 59 °F
Humidity 90%
Rainfall 0.07 in
Snow Depth Not available.
UV 1 out of 12
Pollen 4.70 out of 12
Air Quality Not available.
Flu Activity Sporadic
METAR KXBP 252335Z AUTO 00000KT 10SM OVC009 17/17 A2985 RMK AO2 LTG DSNT NE T01720172

More Conditions Fewer Conditions

Nowcast | as of 11:52 am CDT on May 25, 2015

A line of strong to severe thunderstorms will continue to move towards the northeast at around 35 to 40 mph. The main hazards with this line of thunderstorms will be damaging straight line winds...and perhaps quarter sized hail. Heavy rain and a brief tornado will also be possible. Additional showers and thunderstorms will also develop ahead of the main line along the Highway 281 corridor. Otherwise...expect mostly to partly cloudy skies across much of north and central Texas. Temperatures will climb into the mid 70s and low 80s. Additional thunderstorm development will be possible through the afternoon hours. These thunderstorms will likely become severe and will be capable of producing large hail...destructive winds and a few tornadoes. Heavy rain will also likely result in flash flooding.

×

10-Day Weather Forecast

Almanac

Astronomy

May. 25, 2015 Rise Set
Actual Time
Civil Twilight
Nautical Twilight
Astronomical Twilight
Moon
Length of Visible Light
Length of Day
Tomorrow will be .
, % of the Moon is Illuminated

Today's Extremes

State Highs State Lows

Community

WunderPhotos

Upload Photos

1,824,173 photos uploaded!

WunderBlogs® & News

Nearby

Air Quality

  Air Quality AQ Index Pollutant
Not available.

Snow Depth

Station Depth Elevation

Earthquake Activity

City Distance Mag. Time & Date
Minimum magnitude displayed is 2.5.

Coastal Water Temperatures

Place Temperature

Stations

Nearby Weather Stations

Station Location Temp. Windchill Dew Point Humidity Wind Precip. Elev Updated Type